sensor_id;sensor_type;location;lat;lon;timestamp;P1;durP1;ratioP1;P2;durP2;ratioP2
32633;SDS011;19043;51.012;5.648;2022-07-29T00:02:01;6.47;;;2.38;;
32633;SDS011;19043;51.012;5.648;2022-07-29T00:04:27;6.10;;;2.15;;
32633;SDS011;19043;51.012;5.648;2022-07-29T00:06:52;10.82;;;2.60;;
32633;SDS011;19043;51.012;5.648;2022-07-29T00:09:17;11.23;;;2.10;;
32633;SDS011;19043;51.012;5.648;2022-07-29T00:11:43;7.53;;;2.20;;
32633;SDS011;19043;51.012;5.648;2022-07-29T00:14:08;6.22;;;2.17;;
32633;SDS011;19043;51.012;5.648;2022-07-29T00:16:34;6.00;;;2.47;;
32633;SDS011;19043;51.012;5.648;2022-07-29T00:18:59;3.85;;;2.08;;
32633;SDS011;19043;51.012;5.648;2022-07-29T00:21:25;4.82;;;1.83;;
32633;SDS011;19043;51.012;5.648;2022-07-29T00:23:50;5.20;;;2.10;;
32633;SDS011;19043;51.012;5.648;2022-07-29T00:26:16;6.47;;;1.85;;
32633;SDS011;19043;51.012;5.648;2022-07-29T00:28:41;8.07;;;2.53;;
32633;SDS011;19043;51.012;5.648;2022-07-29T00:31:07;7.28;;;2.17;;
32633;SDS011;19043;51.012;5.648;2022-07-29T00:33:33;6.28;;;2.40;;
32633;SDS011;19043;51.012;5.648;2022-07-29T00:35:58;10.98;;;2.60;;
32633;SDS011;19043;51.012;5.648;2022-07-29T00:38:23;7.15;;;2.40;;
32633;SDS011;19043;51.012;5.648;2022-07-29T00:40:49;7.75;;;2.22;;
32633;SDS011;19043;51.012;5.648;2022-07-29T00:43:15;4.60;;;2.28;;
32633;SDS011;19043;51.012;5.648;2022-07-29T00:45:41;5.40;;;2.45;;
32633;SDS011;19043;51.012;5.648;2022-07-29T00:48:07;6.25;;;2.65;;
32633;SDS011;19043;51.012;5.648;2022-07-29T00:50:34;4.78;;;1.95;;
32633;SDS011;19043;51.012;5.648;2022-07-29T00:52:59;11.38;;;2.75;;
32633;SDS011;19043;51.012;5.648;2022-07-29T00:55:26;10.40;;;2.35;;
32633;SDS011;19043;51.012;5.648;2022-07-29T00:57:51;3.72;;;1.98;;
32633;SDS011;19043;51.012;5.648;2022-07-29T01:00:19;9.95;;;2.35;;
32633;SDS011;19043;51.012;5.648;2022-07-29T01:02:47;6.55;;;2.85;;
32633;SDS011;19043;51.012;5.648;2022-07-29T01:05:16;7.63;;;2.95;;
32633;SDS011;19043;51.012;5.648;2022-07-29T01:07:43;15.93;;;2.67;;
32633;SDS011;19043;51.012;5.648;2022-07-29T01:10:10;6.88;;;2.08;;
32633;SDS011;19043;51.012;5.648;2022-07-29T01:12:38;6.47;;;2.20;;
32633;SDS011;19043;51.012;5.648;2022-07-29T01:15:04;5.20;;;2.05;;
32633;SDS011;19043;51.012;5.648;2022-07-29T01:17:33;8.35;;;2.28;;
32633;SDS011;19043;51.012;5.648;2022-07-29T01:20:13;7.75;;;2.10;;
32633;SDS011;19043;51.012;5.648;2022-07-29T01:22:49;7.30;;;2.38;;
32633;SDS011;19043;51.012;5.648;2022-07-29T01:30:54;3.90;;;2.10;;
32633;SDS011;19043;51.012;5.648;2022-07-29T01:33:20;5.32;;;2.10;;
32633;SDS011;19043;51.012;5.648;2022-07-29T01:36:07;3.65;;;2.05;;
32633;SDS011;19043;51.012;5.648;2022-07-29T01:38:38;4.13;;;1.95;;
32633;SDS011;19043;51.012;5.648;2022-07-29T01:41:38;6.10;;;2.22;;
32633;SDS011;19043;51.012;5.648;2022-07-29T01:43:57;4.82;;;2.00;;
32633;SDS011;19043;51.012;5.648;2022-07-29T01:46:29;5.65;;;2.15;;
32633;SDS011;19043;51.012;5.648;2022-07-29T01:48:58;4.90;;;1.90;;
32633;SDS011;19043;51.012;5.648;2022-07-29T01:51:31;5.18;;;2.08;;
32633;SDS011;19043;51.012;5.648;2022-07-29T01:54:14;7.40;;;2.38;;
32633;SDS011;19043;51.012;5.648;2022-07-29T01:56:44;5.20;;;1.85;;
32633;SDS011;19043;51.012;5.648;2022-07-29T01:59:10;4.15;;;1.83;;
32633;SDS011;19043;51.012;5.648;2022-07-29T02:01:37;7.03;;;2.00;;
32633;SDS011;19043;51.012;5.648;2022-07-29T02:04:05;5.97;;;2.63;;
32633;SDS011;19043;51.012;5.648;2022-07-29T02:06:32;3.55;;;1.92;;
32633;SDS011;19043;51.012;5.648;2022-07-29T02:08:58;4.40;;;2.28;;
32633;SDS011;19043;51.012;5.648;2022-07-29T02:11:24;4.85;;;1.85;;
32633;SDS011;19043;51.012;5.648;2022-07-29T02:13:50;4.00;;;1.70;;
32633;SDS011;19043;51.012;5.648;2022-07-29T02:16:17;4.75;;;2.15;;
32633;SDS011;19043;51.012;5.648;2022-07-29T02:18:46;5.35;;;2.42;;
32633;SDS011;19043;51.012;5.648;2022-07-29T02:21:13;10.35;;;2.70;;
32633;SDS011;19043;51.012;5.648;2022-07-29T02:23:41;5.50;;;2.20;;
32633;SDS011;19043;51.012;5.648;2022-07-29T02:26:07;8.43;;;1.85;;
32633;SDS011;19043;51.012;5.648;2022-07-29T02:28:33;4.88;;;2.20;;
32633;SDS011;19043;51.012;5.648;2022-07-29T02:30:59;4.40;;;2.40;;
32633;SDS011;19043;51.012;5.648;2022-07-29T02:33:26;8.45;;;2.78;;
32633;SDS011;19043;51.012;5.648;2022-07-29T02:35:52;5.10;;;2.50;;
32633;SDS011;19043;51.012;5.648;2022-07-29T02:38:19;6.18;;;2.55;;
32633;SDS011;19043;51.012;5.648;2022-07-29T02:41:26;5.55;;;2.38;;
32633;SDS011;19043;51.012;5.648;2022-07-29T02:43:55;4.95;;;2.83;;
32633;SDS011;19043;51.012;5.648;2022-07-29T02:46:32;4.15;;;2.10;;
32633;SDS011;19043;51.012;5.648;2022-07-29T02:49:02;3.42;;;2.10;;
32633;SDS011;19043;51.012;5.648;2022-07-29T02:51:33;6.50;;;2.35;;
32633;SDS011;19043;51.012;5.648;2022-07-29T02:54:21;7.20;;;1.80;;
32633;SDS011;19043;51.012;5.648;2022-07-29T02:56:49;6.43;;;2.20;;
32633;SDS011;19043;51.012;5.648;2022-07-29T02:59:18;4.28;;;2.35;;
32633;SDS011;19043;51.012;5.648;2022-07-29T03:01:47;5.40;;;2.65;;
32633;SDS011;19043;51.012;5.648;2022-07-29T03:04:13;11.70;;;2.22;;
32633;SDS011;19043;51.012;5.648;2022-07-29T03:06:40;6.80;;;2.95;;
32633;SDS011;19043;51.012;5.648;2022-07-29T03:09:06;6.32;;;2.40;;
32633;SDS011;19043;51.012;5.648;2022-07-29T03:11:32;5.55;;;2.55;;
32633;SDS011;19043;51.012;5.648;2022-07-29T03:13:58;6.50;;;2.30;;
32633;SDS011;19043;51.012;5.648;2022-07-29T03:16:23;5.40;;;2.75;;
32633;SDS011;19043;51.012;5.648;2022-07-29T03:18:49;5.15;;;2.22;;
32633;SDS011;19043;51.012;5.648;2022-07-29T03:21:15;8.57;;;2.13;;
32633;SDS011;19043;51.012;5.648;2022-07-29T03:23:44;4.57;;;2.10;;
32633;SDS011;19043;51.012;5.648;2022-07-29T03:26:12;3.78;;;2.03;;
32633;SDS011;19043;51.012;5.648;2022-07-29T03:28:38;5.22;;;2.30;;
32633;SDS011;19043;51.012;5.648;2022-07-29T03:31:03;7.82;;;2.63;;
32633;SDS011;19043;51.012;5.648;2022-07-29T03:33:29;5.47;;;2.40;;
32633;SDS011;19043;51.012;5.648;2022-07-29T03:35:55;5.15;;;2.15;;
32633;SDS011;19043;51.012;5.648;2022-07-29T03:38:20;4.28;;;2.20;;
32633;SDS011;19043;51.012;5.648;2022-07-29T03:40:53;3.88;;;2.40;;
32633;SDS011;19043;51.012;5.648;2022-07-29T03:43:21;4.38;;;2.03;;
32633;SDS011;19043;51.012;5.648;2022-07-29T03:45:49;5.63;;;2.53;;
32633;SDS011;19043;51.012;5.648;2022-07-29T03:48:16;6.22;;;2.50;;
32633;SDS011;19043;51.012;5.648;2022-07-29T03:50:43;4.30;;;2.45;;
32633;SDS011;19043;51.012;5.648;2022-07-29T03:53:09;4.35;;;2.58;;
32633;SDS011;19043;51.012;5.648;2022-07-29T03:55:41;10.18;;;3.25;;
32633;SDS011;19043;51.012;5.648;2022-07-29T03:58:08;10.43;;;2.92;;
32633;SDS011;19043;51.012;5.648;2022-07-29T04:00:35;7.90;;;3.20;;
32633;SDS011;19043;51.012;5.648;2022-07-29T04:03:02;7.22;;;3.45;;
32633;SDS011;19043;51.012;5.648;2022-07-29T04:05:28;4.20;;;2.70;;
32633;SDS011;19043;51.012;5.648;2022-07-29T04:07:54;6.90;;;3.00;;
32633;SDS011;19043;51.012;5.648;2022-07-29T04:10:19;4.45;;;2.80;;
32633;SDS011;19043;51.012;5.648;2022-07-29T04:12:45;6.72;;;3.03;;
32633;SDS011;19043;51.012;5.648;2022-07-29T04:15:10;5.60;;;2.75;;
32633;SDS011;19043;51.012;5.648;2022-07-29T04:17:36;6.75;;;3.65;;
32633;SDS011;19043;51.012;5.648;2022-07-29T04:20:01;5.10;;;3.28;;
32633;SDS011;19043;51.012;5.648;2022-07-29T04:22:27;6.68;;;3.95;;
32633;SDS011;19043;51.012;5.648;2022-07-29T04:24:52;7.10;;;3.28;;
32633;SDS011;19043;51.012;5.648;2022-07-29T04:27:18;6.53;;;3.88;;
32633;SDS011;19043;51.012;5.648;2022-07-29T04:29:43;6.10;;;3.50;;
32633;SDS011;19043;51.012;5.648;2022-07-29T04:32:09;5.60;;;4.05;;
32633;SDS011;19043;51.012;5.648;2022-07-29T04:34:34;5.63;;;4.07;;
32633;SDS011;19043;51.012;5.648;2022-07-29T04:36:59;7.75;;;4.05;;
32633;SDS011;19043;51.012;5.648;2022-07-29T04:39:25;16.40;;;5.07;;
32633;SDS011;19043;51.012;5.648;2022-07-29T04:41:50;7.00;;;4.43;;
32633;SDS011;19043;51.012;5.648;2022-07-29T04:44:16;8.23;;;4.57;;
32633;SDS011;19043;51.012;5.648;2022-07-29T04:46:41;5.78;;;4.15;;
32633;SDS011;19043;51.012;5.648;2022-07-29T04:49:07;12.07;;;5.00;;
32633;SDS011;19043;51.012;5.648;2022-07-29T04:51:32;8.52;;;5.07;;
32633;SDS011;19043;51.012;5.648;2022-07-29T04:53:58;9.80;;;4.57;;
32633;SDS011;19043;51.012;5.648;2022-07-29T04:56:23;8.13;;;4.65;;
32633;SDS011;19043;51.012;5.648;2022-07-29T04:58:49;7.60;;;4.45;;
32633;SDS011;19043;51.012;5.648;2022-07-29T05:01:14;10.02;;;5.95;;
32633;SDS011;19043;51.012;5.648;2022-07-29T05:03:40;6.97;;;4.55;;
32633;SDS011;19043;51.012;5.648;2022-07-29T05:06:05;8.65;;;5.10;;
32633;SDS011;19043;51.012;5.648;2022-07-29T05:08:31;5.38;;;3.92;;
32633;SDS011;19043;51.012;5.648;2022-07-29T05:10:56;17.27;;;4.82;;
32633;SDS011;19043;51.012;5.648;2022-07-29T05:13:21;8.57;;;4.80;;
32633;SDS011;19043;51.012;5.648;2022-07-29T05:15:47;7.80;;;4.65;;
32633;SDS011;19043;51.012;5.648;2022-07-29T05:18:12;6.88;;;5.03;;
32633;SDS011;19043;51.012;5.648;2022-07-29T05:20:39;10.82;;;4.82;;
32633;SDS011;19043;51.012;5.648;2022-07-29T05:23:04;8.27;;;4.95;;
32633;SDS011;19043;51.012;5.648;2022-07-29T05:25:29;9.40;;;4.50;;
32633;SDS011;19043;51.012;5.648;2022-07-29T05:27:55;9.90;;;4.88;;
32633;SDS011;19043;51.012;5.648;2022-07-29T05:30:21;11.00;;;5.15;;
32633;SDS011;19043;51.012;5.648;2022-07-29T05:32:47;15.18;;;5.25;;
32633;SDS011;19043;51.012;5.648;2022-07-29T05:35:13;7.38;;;4.70;;
32633;SDS011;19043;51.012;5.648;2022-07-29T05:37:39;8.77;;;5.07;;
32633;SDS011;19043;51.012;5.648;2022-07-29T05:40:05;8.75;;;4.82;;
32633;SDS011;19043;51.012;5.648;2022-07-29T05:42:30;7.85;;;5.13;;
32633;SDS011;19043;51.012;5.648;2022-07-29T05:44:56;6.53;;;4.60;;
32633;SDS011;19043;51.012;5.648;2022-07-29T05:47:21;11.52;;;5.47;;
32633;SDS011;19043;51.012;5.648;2022-07-29T05:49:47;10.35;;;5.28;;
32633;SDS011;19043;51.012;5.648;2022-07-29T05:52:13;6.30;;;4.63;;
32633;SDS011;19043;51.012;5.648;2022-07-29T05:54:39;5.45;;;4.25;;
32633;SDS011;19043;51.012;5.648;2022-07-29T05:57:04;7.78;;;5.13;;
32633;SDS011;19043;51.012;5.648;2022-07-29T05:59:30;6.80;;;4.85;;
32633;SDS011;19043;51.012;5.648;2022-07-29T06:01:57;9.10;;;5.80;;
32633;SDS011;19043;51.012;5.648;2022-07-29T06:04:22;8.88;;;5.68;;
32633;SDS011;19043;51.012;5.648;2022-07-29T06:06:48;8.65;;;5.80;;
32633;SDS011;19043;51.012;5.648;2022-07-29T06:09:13;8.77;;;5.70;;
32633;SDS011;19043;51.012;5.648;2022-07-29T06:11:39;7.38;;;4.72;;
32633;SDS011;19043;51.012;5.648;2022-07-29T06:14:05;9.70;;;6.40;;
32633;SDS011;19043;51.012;5.648;2022-07-29T06:16:30;7.57;;;5.30;;
32633;SDS011;19043;51.012;5.648;2022-07-29T06:18:56;10.85;;;5.68;;
32633;SDS011;19043;51.012;5.648;2022-07-29T06:21:21;10.43;;;6.40;;
32633;SDS011;19043;51.012;5.648;2022-07-29T06:23:47;9.38;;;6.57;;
32633;SDS011;19043;51.012;5.648;2022-07-29T06:26:12;6.72;;;5.35;;
32633;SDS011;19043;51.012;5.648;2022-07-29T06:28:38;10.80;;;6.45;;
32633;SDS011;19043;51.012;5.648;2022-07-29T06:31:03;9.13;;;5.85;;
32633;SDS011;19043;51.012;5.648;2022-07-29T06:33:30;11.85;;;6.03;;
32633;SDS011;19043;51.012;5.648;2022-07-29T06:35:56;7.78;;;5.65;;
32633;SDS011;19043;51.012;5.648;2022-07-29T06:38:21;9.43;;;6.45;;
32633;SDS011;19043;51.012;5.648;2022-07-29T06:40:47;11.18;;;6.07;;
32633;SDS011;19043;51.012;5.648;2022-07-29T06:43:32;8.85;;;5.82;;
32633;SDS011;19043;51.012;5.648;2022-07-29T06:46:15;12.18;;;7.22;;
32633;SDS011;19043;51.012;5.648;2022-07-29T06:48:42;7.88;;;6.60;;
32633;SDS011;19043;51.012;5.648;2022-07-29T06:51:09;11.02;;;7.57;;
32633;SDS011;19043;51.012;5.648;2022-07-29T06:53:36;7.35;;;6.10;;
32633;SDS011;19043;51.012;5.648;2022-07-29T06:56:05;9.13;;;6.88;;
32633;SDS011;19043;51.012;5.648;2022-07-29T06:58:33;15.57;;;6.97;;
32633;SDS011;19043;51.012;5.648;2022-07-29T07:01:02;9.85;;;6.55;;
32633;SDS011;19043;51.012;5.648;2022-07-29T07:03:28;10.15;;;6.20;;
32633;SDS011;19043;51.012;5.648;2022-07-29T07:05:54;18.13;;;5.82;;
32633;SDS011;19043;51.012;5.648;2022-07-29T07:08:20;8.60;;;5.47;;
32633;SDS011;19043;51.012;5.648;2022-07-29T07:10:45;8.50;;;5.40;;
32633;SDS011;19043;51.012;5.648;2022-07-29T07:13:11;11.25;;;5.70;;
32633;SDS011;19043;51.012;5.648;2022-07-29T07:15:36;6.97;;;5.45;;
32633;SDS011;19043;51.012;5.648;2022-07-29T07:18:03;8.65;;;5.47;;
32633;SDS011;19043;51.012;5.648;2022-07-29T07:20:28;8.10;;;5.68;;
32633;SDS011;19043;51.012;5.648;2022-07-29T07:22:54;9.60;;;5.05;;
32633;SDS011;19043;51.012;5.648;2022-07-29T07:25:19;8.68;;;5.93;;
32633;SDS011;19043;51.012;5.648;2022-07-29T07:27:45;7.82;;;5.20;;
32633;SDS011;19043;51.012;5.648;2022-07-29T07:30:10;11.85;;;6.25;;
32633;SDS011;19043;51.012;5.648;2022-07-29T07:32:36;10.23;;;5.75;;
32633;SDS011;19043;51.012;5.648;2022-07-29T07:35:06;8.48;;;5.68;;
32633;SDS011;19043;51.012;5.648;2022-07-29T07:37:32;15.90;;;6.43;;
32633;SDS011;19043;51.012;5.648;2022-07-29T07:39:58;15.40;;;6.53;;
32633;SDS011;19043;51.012;5.648;2022-07-29T07:42:23;8.50;;;5.82;;
32633;SDS011;19043;51.012;5.648;2022-07-29T07:44:49;8.23;;;5.38;;
32633;SDS011;19043;51.012;5.648;2022-07-29T07:47:14;9.35;;;6.25;;
32633;SDS011;19043;51.012;5.648;2022-07-29T07:49:44;15.43;;;6.35;;
32633;SDS011;19043;51.012;5.648;2022-07-29T07:52:13;9.65;;;5.82;;
32633;SDS011;19043;51.012;5.648;2022-07-29T07:54:40;11.43;;;5.57;;
32633;SDS011;19043;51.012;5.648;2022-07-29T07:57:05;7.60;;;5.85;;
32633;SDS011;19043;51.012;5.648;2022-07-29T07:59:31;10.07;;;6.00;;
32633;SDS011;19043;51.012;5.648;2022-07-29T08:01:57;10.98;;;7.05;;
32633;SDS011;19043;51.012;5.648;2022-07-29T08:04:22;7.45;;;5.70;;
32633;SDS011;19043;51.012;5.648;2022-07-29T08:06:49;8.13;;;6.65;;
32633;SDS011;19043;51.012;5.648;2022-07-29T08:09:25;8.48;;;6.93;;
32633;SDS011;19043;51.012;5.648;2022-07-29T08:11:53;10.65;;;7.60;;
32633;SDS011;19043;51.012;5.648;2022-07-29T08:14:19;9.25;;;7.15;;
32633;SDS011;19043;51.012;5.648;2022-07-29T08:16:44;11.13;;;6.78;;
32633;SDS011;19043;51.012;5.648;2022-07-29T08:19:10;9.98;;;7.38;;
32633;SDS011;19043;51.012;5.648;2022-07-29T08:21:35;13.63;;;8.13;;
32633;SDS011;19043;51.012;5.648;2022-07-29T08:24:01;10.23;;;6.75;;
32633;SDS011;19043;51.012;5.648;2022-07-29T08:26:45;10.77;;;7.75;;
32633;SDS011;19043;51.012;5.648;2022-07-29T08:29:10;16.75;;;7.13;;
32633;SDS011;19043;51.012;5.648;2022-07-29T08:31:36;11.27;;;6.78;;
32633;SDS011;19043;51.012;5.648;2022-07-29T08:34:02;9.00;;;7.25;;
32633;SDS011;19043;51.012;5.648;2022-07-29T08:36:28;8.90;;;6.05;;
32633;SDS011;19043;51.012;5.648;2022-07-29T08:38:53;9.02;;;6.47;;
32633;SDS011;19043;51.012;5.648;2022-07-29T08:41:19;9.35;;;7.82;;
32633;SDS011;19043;51.012;5.648;2022-07-29T08:43:45;10.32;;;6.82;;
32633;SDS011;19043;51.012;5.648;2022-07-29T08:46:10;10.20;;;6.93;;
32633;SDS011;19043;51.012;5.648;2022-07-29T08:48:36;8.05;;;5.30;;
32633;SDS011;19043;51.012;5.648;2022-07-29T08:51:02;9.00;;;5.68;;
32633;SDS011;19043;51.012;5.648;2022-07-29T08:53:28;11.55;;;6.78;;
32633;SDS011;19043;51.012;5.648;2022-07-29T08:55:54;8.80;;;6.57;;
32633;SDS011;19043;51.012;5.648;2022-07-29T08:58:20;12.00;;;7.15;;
32633;SDS011;19043;51.012;5.648;2022-07-29T09:00:47;13.18;;;6.22;;
32633;SDS011;19043;51.012;5.648;2022-07-29T09:03:18;6.88;;;5.50;;
32633;SDS011;19043;51.012;5.648;2022-07-29T09:05:47;7.20;;;4.00;;
32633;SDS011;19043;51.012;5.648;2022-07-29T09:08:13;9.77;;;5.05;;
32633;SDS011;19043;51.012;5.648;2022-07-29T09:10:39;8.10;;;5.80;;
32633;SDS011;19043;51.012;5.648;2022-07-29T09:13:05;7.50;;;5.63;;
32633;SDS011;19043;51.012;5.648;2022-07-29T09:15:30;10.82;;;5.15;;
32633;SDS011;19043;51.012;5.648;2022-07-29T09:17:56;6.35;;;4.25;;
32633;SDS011;19043;51.012;5.648;2022-07-29T09:20:23;9.27;;;5.22;;
32633;SDS011;19043;51.012;5.648;2022-07-29T09:22:49;15.15;;;5.07;;
32633;SDS011;19043;51.012;5.648;2022-07-29T09:25:36;7.43;;;4.53;;
32633;SDS011;19043;51.012;5.648;2022-07-29T09:28:15;7.05;;;4.95;;
32633;SDS011;19043;51.012;5.648;2022-07-29T09:30:55;26.15;;;6.10;;
32633;SDS011;19043;51.012;5.648;2022-07-29T09:33:22;7.32;;;5.45;;
32633;SDS011;19043;51.012;5.648;2022-07-29T09:36:04;9.45;;;5.45;;
32633;SDS011;19043;51.012;5.648;2022-07-29T09:38:32;9.77;;;5.45;;
32633;SDS011;19043;51.012;5.648;2022-07-29T09:40:59;13.85;;;6.07;;
32633;SDS011;19043;51.012;5.648;2022-07-29T09:43:25;7.13;;;5.00;;
32633;SDS011;19043;51.012;5.648;2022-07-29T09:45:51;9.75;;;5.63;;
32633;SDS011;19043;51.012;5.648;2022-07-29T09:48:20;7.70;;;5.10;;
32633;SDS011;19043;51.012;5.648;2022-07-29T09:50:48;7.22;;;5.25;;
32633;SDS011;19043;51.012;5.648;2022-07-29T09:56:09;8.20;;;5.53;;
32633;SDS011;19043;51.012;5.648;2022-07-29T09:58:35;10.38;;;4.45;;
32633;SDS011;19043;51.012;5.648;2022-07-29T10:01:01;7.57;;;3.95;;
32633;SDS011;19043;51.012;5.648;2022-07-29T10:03:26;10.48;;;4.40;;
32633;SDS011;19043;51.012;5.648;2022-07-29T10:06:05;6.80;;;4.85;;
32633;SDS011;19043;51.012;5.648;2022-07-29T10:08:35;6.22;;;4.03;;
32633;SDS011;19043;51.012;5.648;2022-07-29T10:11:13;6.68;;;4.00;;
32633;SDS011;19043;51.012;5.648;2022-07-29T10:13:41;5.80;;;3.50;;
32633;SDS011;19043;51.012;5.648;2022-07-29T10:16:06;4.65;;;3.03;;
32633;SDS011;19043;51.012;5.648;2022-07-29T10:18:32;6.20;;;2.72;;
32633;SDS011;19043;51.012;5.648;2022-07-29T10:20:57;5.05;;;2.75;;
32633;SDS011;19043;51.012;5.648;2022-07-29T10:23:25;4.80;;;2.50;;
32633;SDS011;19043;51.012;5.648;2022-07-29T10:25:51;7.78;;;3.88;;
32633;SDS011;19043;51.012;5.648;2022-07-29T10:28:17;4.78;;;3.35;;
32633;SDS011;19043;51.012;5.648;2022-07-29T10:30:42;4.72;;;3.22;;
32633;SDS011;19043;51.012;5.648;2022-07-29T10:44:20;3.55;;;2.20;;
32633;SDS011;19043;51.012;5.648;2022-07-29T10:46:47;6.85;;;3.67;;
32633;SDS011;19043;51.012;5.648;2022-07-29T10:49:15;5.65;;;3.20;;
32633;SDS011;19043;51.012;5.648;2022-07-29T10:57:13;4.53;;;2.28;;
32633;SDS011;19043;51.012;5.648;2022-07-29T10:59:39;5.35;;;2.20;;
32633;SDS011;19043;51.012;5.648;2022-07-29T11:07:25;5.28;;;2.83;;
32633;SDS011;19043;51.012;5.648;2022-07-29T11:12:46;3.63;;;2.20;;
32633;SDS011;19043;51.012;5.648;2022-07-29T11:15:13;4.63;;;2.65;;
32633;SDS011;19043;51.012;5.648;2022-07-29T11:22:56;5.93;;;2.13;;
32633;SDS011;19043;51.012;5.648;2022-07-29T11:25:22;4.63;;;2.20;;
32633;SDS011;19043;51.012;5.648;2022-07-29T11:27:48;7.28;;;1.58;;
32633;SDS011;19043;51.012;5.648;2022-07-29T11:30:13;4.18;;;2.22;;
32633;SDS011;19043;51.012;5.648;2022-07-29T11:32:40;7.57;;;2.70;;
32633;SDS011;19043;51.012;5.648;2022-07-29T11:35:13;5.30;;;2.00;;
32633;SDS011;19043;51.012;5.648;2022-07-29T11:37:39;7.72;;;2.15;;
32633;SDS011;19043;51.012;5.648;2022-07-29T11:45:06;4.90;;;2.55;;
32633;SDS011;19043;51.012;5.648;2022-07-29T11:47:42;6.80;;;2.72;;
32633;SDS011;19043;51.012;5.648;2022-07-29T11:50:14;6.43;;;2.55;;
32633;SDS011;19043;51.012;5.648;2022-07-29T11:52:46;4.72;;;2.25;;
32633;SDS011;19043;51.012;5.648;2022-07-29T11:55:14;4.53;;;2.42;;
32633;SDS011;19043;51.012;5.648;2022-07-29T12:00:19;4.78;;;2.58;;
32633;SDS011;19043;51.012;5.648;2022-07-29T12:02:46;3.67;;;2.30;;
32633;SDS011;19043;51.012;5.648;2022-07-29T12:05:12;5.10;;;3.08;;
32633;SDS011;19043;51.012;5.648;2022-07-29T12:07:37;3.58;;;2.15;;
32633;SDS011;19043;51.012;5.648;2022-07-29T12:10:04;3.90;;;2.40;;
32633;SDS011;19043;51.012;5.648;2022-07-29T12:12:30;7.43;;;2.47;;
32633;SDS011;19043;51.012;5.648;2022-07-29T12:14:55;4.47;;;2.25;;
32633;SDS011;19043;51.012;5.648;2022-07-29T12:17:28;4.82;;;2.65;;
32633;SDS011;19043;51.012;5.648;2022-07-29T12:19:54;3.92;;;2.05;;
32633;SDS011;19043;51.012;5.648;2022-07-29T12:22:26;4.93;;;2.80;;
32633;SDS011;19043;51.012;5.648;2022-07-29T12:24:53;5.00;;;2.33;;
32633;SDS011;19043;51.012;5.648;2022-07-29T12:27:19;18.73;;;4.15;;
32633;SDS011;19043;51.012;5.648;2022-07-29T12:29:54;4.65;;;2.65;;
32633;SDS011;19043;51.012;5.648;2022-07-29T12:32:21;5.03;;;2.40;;
32633;SDS011;19043;51.012;5.648;2022-07-29T12:34:46;6.00;;;2.67;;
32633;SDS011;19043;51.012;5.648;2022-07-29T12:37:12;5.32;;;2.50;;
32633;SDS011;19043;51.012;5.648;2022-07-29T12:39:38;4.10;;;2.15;;
32633;SDS011;19043;51.012;5.648;2022-07-29T12:42:10;5.03;;;2.35;;
32633;SDS011;19043;51.012;5.648;2022-07-29T12:44:46;6.03;;;2.50;;
32633;SDS011;19043;51.012;5.648;2022-07-29T12:47:13;3.88;;;2.15;;
32633;SDS011;19043;51.012;5.648;2022-07-29T12:49:38;3.35;;;2.10;;
32633;SDS011;19043;51.012;5.648;2022-07-29T12:54:52;3.92;;;2.03;;
32633;SDS011;19043;51.012;5.648;2022-07-29T12:57:17;5.50;;;2.72;;
32633;SDS011;19043;51.012;5.648;2022-07-29T12:59:43;3.13;;;1.90;;
32633;SDS011;19043;51.012;5.648;2022-07-29T13:02:19;7.57;;;2.95;;
32633;SDS011;19043;51.012;5.648;2022-07-29T13:04:54;4.82;;;2.50;;
32633;SDS011;19043;51.012;5.648;2022-07-29T13:07:27;4.00;;;2.60;;
32633;SDS011;19043;51.012;5.648;2022-07-29T13:10:09;5.35;;;2.55;;
32633;SDS011;19043;51.012;5.648;2022-07-29T13:15:29;6.05;;;2.80;;
32633;SDS011;19043;51.012;5.648;2022-07-29T13:17:55;6.95;;;2.47;;
32633;SDS011;19043;51.012;5.648;2022-07-29T13:20:23;5.78;;;2.63;;
32633;SDS011;19043;51.012;5.648;2022-07-29T13:22:50;5.22;;;2.35;;
32633;SDS011;19043;51.012;5.648;2022-07-29T13:25:23;6.00;;;2.22;;
32633;SDS011;19043;51.012;5.648;2022-07-29T13:27:53;5.20;;;2.55;;
32633;SDS011;19043;51.012;5.648;2022-07-29T13:30:19;4.13;;;2.42;;
32633;SDS011;19043;51.012;5.648;2022-07-29T13:32:45;5.40;;;3.35;;
32633;SDS011;19043;51.012;5.648;2022-07-29T13:35:11;6.03;;;2.47;;
32633;SDS011;19043;51.012;5.648;2022-07-29T13:37:37;4.57;;;2.55;;
32633;SDS011;19043;51.012;5.648;2022-07-29T13:40:06;5.85;;;2.97;;
32633;SDS011;19043;51.012;5.648;2022-07-29T13:42:32;5.15;;;2.28;;
32633;SDS011;19043;51.012;5.648;2022-07-29T13:44:58;4.10;;;2.50;;
32633;SDS011;19043;51.012;5.648;2022-07-29T13:47:24;4.03;;;2.25;;
32633;SDS011;19043;51.012;5.648;2022-07-29T13:49:50;4.38;;;2.47;;
32633;SDS011;19043;51.012;5.648;2022-07-29T13:52:15;5.13;;;2.53;;
32633;SDS011;19043;51.012;5.648;2022-07-29T13:54:41;5.00;;;1.90;;
32633;SDS011;19043;51.012;5.648;2022-07-29T13:57:07;4.75;;;2.85;;
32633;SDS011;19043;51.012;5.648;2022-07-29T13:59:32;4.03;;;2.03;;
32633;SDS011;19043;51.012;5.648;2022-07-29T14:01:58;6.38;;;2.28;;
32633;SDS011;19043;51.012;5.648;2022-07-29T14:04:29;3.33;;;2.00;;
32633;SDS011;19043;51.012;5.648;2022-07-29T14:06:54;4.07;;;2.15;;
32633;SDS011;19043;51.012;5.648;2022-07-29T14:09:20;4.00;;;1.90;;
32633;SDS011;19043;51.012;5.648;2022-07-29T14:11:45;6.10;;;2.53;;
32633;SDS011;19043;51.012;5.648;2022-07-29T14:14:11;6.85;;;2.65;;
32633;SDS011;19043;51.012;5.648;2022-07-29T14:16:36;8.35;;;2.65;;
32633;SDS011;19043;51.012;5.648;2022-07-29T14:19:02;5.30;;;2.55;;
32633;SDS011;19043;51.012;5.648;2022-07-29T14:21:27;5.20;;;2.22;;
32633;SDS011;19043;51.012;5.648;2022-07-29T14:23:53;3.92;;;1.83;;
32633;SDS011;19043;51.012;5.648;2022-07-29T14:26:19;5.15;;;2.17;;
32633;SDS011;19043;51.012;5.648;2022-07-29T14:28:45;5.22;;;2.42;;
32633;SDS011;19043;51.012;5.648;2022-07-29T14:31:10;9.20;;;3.33;;
32633;SDS011;19043;51.012;5.648;2022-07-29T14:33:36;7.15;;;2.33;;
32633;SDS011;19043;51.012;5.648;2022-07-29T14:36:02;4.32;;;2.50;;
32633;SDS011;19043;51.012;5.648;2022-07-29T14:38:28;4.15;;;2.10;;
32633;SDS011;19043;51.012;5.648;2022-07-29T14:40:53;4.43;;;2.17;;
32633;SDS011;19043;51.012;5.648;2022-07-29T14:43:18;5.25;;;1.80;;
32633;SDS011;19043;51.012;5.648;2022-07-29T14:45:44;4.38;;;2.05;;
32633;SDS011;19043;51.012;5.648;2022-07-29T14:48:09;4.38;;;2.00;;
32633;SDS011;19043;51.012;5.648;2022-07-29T14:50:36;5.40;;;1.85;;
32633;SDS011;19043;51.012;5.648;2022-07-29T14:53:01;5.90;;;2.13;;
32633;SDS011;19043;51.012;5.648;2022-07-29T14:55:27;4.55;;;2.20;;
32633;SDS011;19043;51.012;5.648;2022-07-29T14:57:52;4.20;;;1.90;;
32633;SDS011;19043;51.012;5.648;2022-07-29T15:00:18;4.03;;;1.83;;
32633;SDS011;19043;51.012;5.648;2022-07-29T15:02:45;4.97;;;2.17;;
32633;SDS011;19043;51.012;5.648;2022-07-29T15:05:11;4.25;;;2.15;;
32633;SDS011;19043;51.012;5.648;2022-07-29T15:07:37;3.47;;;1.77;;
32633;SDS011;19043;51.012;5.648;2022-07-29T15:10:02;5.28;;;2.30;;
32633;SDS011;19043;51.012;5.648;2022-07-29T15:12:29;3.50;;;2.20;;
32633;SDS011;19043;51.012;5.648;2022-07-29T15:14:55;3.50;;;1.92;;
32633;SDS011;19043;51.012;5.648;2022-07-29T15:17:21;4.50;;;2.17;;
32633;SDS011;19043;51.012;5.648;2022-07-29T15:19:46;7.30;;;2.53;;
32633;SDS011;19043;51.012;5.648;2022-07-29T15:22:11;5.15;;;2.13;;
32633;SDS011;19043;51.012;5.648;2022-07-29T15:24:37;4.80;;;2.30;;
32633;SDS011;19043;51.012;5.648;2022-07-29T15:27:02;5.00;;;2.00;;
32633;SDS011;19043;51.012;5.648;2022-07-29T15:29:28;5.35;;;2.40;;
32633;SDS011;19043;51.012;5.648;2022-07-29T15:31:53;4.25;;;2.30;;
32633;SDS011;19043;51.012;5.648;2022-07-29T15:34:18;8.20;;;2.00;;
32633;SDS011;19043;51.012;5.648;2022-07-29T15:36:45;4.78;;;2.20;;
32633;SDS011;19043;51.012;5.648;2022-07-29T15:39:11;5.45;;;2.50;;